sensor_id;sensor_type;location;lat;lon;timestamp;P1;durP1;ratioP1;P2;durP2;ratioP2
2035;SDS011;23642;42.658;23.350;2024-01-06T00:00:16;124.50;;;114.67;;
2035;SDS011;23642;42.658;23.350;2024-01-06T00:02:49;121.50;;;112.00;;
2035;SDS011;23642;42.658;23.350;2024-01-06T00:05:16;118.23;;;109.40;;
2035;SDS011;23642;42.658;23.350;2024-01-06T00:07:46;122.30;;;112.53;;
2035;SDS011;23642;42.658;23.350;2024-01-06T00:10:16;120.23;;;110.40;;
2035;SDS011;23642;42.658;23.350;2024-01-06T00:12:54;114.47;;;105.47;;
2035;SDS011;23642;42.658;23.350;2024-01-06T00:15:21;125.73;;;115.27;;
2035;SDS011;23642;42.658;23.350;2024-01-06T00:17:51;122.50;;;112.93;;
2035;SDS011;23642;42.658;23.350;2024-01-06T00:20:22;121.63;;;112.33;;
2035;SDS011;23642;42.658;23.350;2024-01-06T00:22:52;121.73;;;111.30;;
2035;SDS011;23642;42.658;23.350;2024-01-06T00:25:24;126.43;;;115.40;;
2035;SDS011;23642;42.658;23.350;2024-01-06T00:27:52;130.00;;;119.10;;
2035;SDS011;23642;42.658;23.350;2024-01-06T00:30:21;124.57;;;114.00;;
2035;SDS011;23642;42.658;23.350;2024-01-06T00:32:54;123.70;;;113.50;;
2035;SDS011;23642;42.658;23.350;2024-01-06T00:35:34;132.90;;;121.47;;
2035;SDS011;23642;42.658;23.350;2024-01-06T00:38:16;123.27;;;112.73;;
2035;SDS011;23642;42.658;23.350;2024-01-06T00:40:45;123.33;;;113.53;;
2035;SDS011;23642;42.658;23.350;2024-01-06T00:43:13;123.33;;;113.80;;
2035;SDS011;23642;42.658;23.350;2024-01-06T00:45:43;122.80;;;113.20;;
2035;SDS011;23642;42.658;23.350;2024-01-06T00:48:10;122.40;;;112.77;;
2035;SDS011;23642;42.658;23.350;2024-01-06T00:50:39;125.40;;;115.10;;
2035;SDS011;23642;42.658;23.350;2024-01-06T00:53:07;126.87;;;116.97;;
2035;SDS011;23642;42.658;23.350;2024-01-06T00:55:40;123.10;;;113.00;;
2035;SDS011;23642;42.658;23.350;2024-01-06T00:58:11;122.97;;;113.33;;
2035;SDS011;23642;42.658;23.350;2024-01-06T01:00:44;126.87;;;116.30;;
2035;SDS011;23642;42.658;23.350;2024-01-06T01:03:16;124.83;;;114.33;;
2035;SDS011;23642;42.658;23.350;2024-01-06T01:05:50;126.53;;;116.60;;
2035;SDS011;23642;42.658;23.350;2024-01-06T01:08:21;121.97;;;111.83;;
2035;SDS011;23642;42.658;23.350;2024-01-06T01:10:54;124.73;;;113.97;;
2035;SDS011;23642;42.658;23.350;2024-01-06T01:13:31;121.83;;;112.57;;
2035;SDS011;23642;42.658;23.350;2024-01-06T01:16:02;119.00;;;110.07;;
2035;SDS011;23642;42.658;23.350;2024-01-06T01:18:42;121.43;;;111.87;;
2035;SDS011;23642;42.658;23.350;2024-01-06T01:21:14;122.00;;;112.80;;
2035;SDS011;23642;42.658;23.350;2024-01-06T01:23:46;118.77;;;109.77;;
2035;SDS011;23642;42.658;23.350;2024-01-06T01:26:17;124.00;;;114.37;;
2035;SDS011;23642;42.658;23.350;2024-01-06T01:28:56;121.20;;;110.90;;
2035;SDS011;23642;42.658;23.350;2024-01-06T01:31:25;120.10;;;110.83;;
2035;SDS011;23642;42.658;23.350;2024-01-06T01:33:55;122.00;;;112.60;;
2035;SDS011;23642;42.658;23.350;2024-01-06T01:36:30;120.67;;;111.03;;
2035;SDS011;23642;42.658;23.350;2024-01-06T01:39:01;119.40;;;110.33;;
2035;SDS011;23642;42.658;23.350;2024-01-06T01:41:31;120.07;;;110.77;;
2035;SDS011;23642;42.658;23.350;2024-01-06T01:44:07;118.47;;;108.97;;
2035;SDS011;23642;42.658;23.350;2024-01-06T01:46:37;119.40;;;109.83;;
2035;SDS011;23642;42.658;23.350;2024-01-06T01:49:10;121.53;;;111.77;;
2035;SDS011;23642;42.658;23.350;2024-01-06T01:51:45;118.07;;;109.00;;
2035;SDS011;23642;42.658;23.350;2024-01-06T01:54:35;121.27;;;111.63;;
2035;SDS011;23642;42.658;23.350;2024-01-06T01:57:06;125.73;;;114.63;;
2035;SDS011;23642;42.658;23.350;2024-01-06T01:59:36;120.90;;;111.53;;
2035;SDS011;23642;42.658;23.350;2024-01-06T02:02:09;121.80;;;111.57;;
2035;SDS011;23642;42.658;23.350;2024-01-06T02:04:39;122.53;;;111.80;;
2035;SDS011;23642;42.658;23.350;2024-01-06T02:07:07;119.00;;;109.73;;
2035;SDS011;23642;42.658;23.350;2024-01-06T02:09:34;120.70;;;110.90;;
2035;SDS011;23642;42.658;23.350;2024-01-06T02:12:04;119.37;;;109.57;;
2035;SDS011;23642;42.658;23.350;2024-01-06T02:14:37;125.03;;;114.50;;
2035;SDS011;23642;42.658;23.350;2024-01-06T02:17:08;118.10;;;108.70;;
2035;SDS011;23642;42.658;23.350;2024-01-06T02:19:37;121.63;;;111.50;;
2035;SDS011;23642;42.658;23.350;2024-01-06T02:22:11;124.93;;;114.47;;
2035;SDS011;23642;42.658;23.350;2024-01-06T02:24:42;119.93;;;110.73;;
2035;SDS011;23642;42.658;23.350;2024-01-06T02:27:12;120.30;;;110.97;;
2035;SDS011;23642;42.658;23.350;2024-01-06T02:29:43;121.53;;;112.03;;
2035;SDS011;23642;42.658;23.350;2024-01-06T02:32:15;122.17;;;112.93;;
2035;SDS011;23642;42.658;23.350;2024-01-06T02:34:44;122.93;;;112.67;;
2035;SDS011;23642;42.658;23.350;2024-01-06T02:37:19;120.83;;;111.07;;
2035;SDS011;23642;42.658;23.350;2024-01-06T02:39:58;118.80;;;109.30;;
2035;SDS011;23642;42.658;23.350;2024-01-06T02:42:30;121.83;;;111.03;;
2035;SDS011;23642;42.658;23.350;2024-01-06T02:44:57;118.13;;;108.00;;
2035;SDS011;23642;42.658;23.350;2024-01-06T02:47:27;116.67;;;107.63;;
2035;SDS011;23642;42.658;23.350;2024-01-06T02:50:04;121.20;;;111.73;;
2035;SDS011;23642;42.658;23.350;2024-01-06T02:55:31;121.60;;;111.43;;
2035;SDS011;23642;42.658;23.350;2024-01-06T02:58:09;122.73;;;112.40;;
2035;SDS011;23642;42.658;23.350;2024-01-06T03:00:59;119.20;;;110.27;;
2035;SDS011;23642;42.658;23.350;2024-01-06T03:03:27;115.40;;;106.50;;
2035;SDS011;23642;42.658;23.350;2024-01-06T03:05:57;115.60;;;106.80;;
2035;SDS011;23642;42.658;23.350;2024-01-06T03:08:29;116.00;;;107.20;;
2035;SDS011;23642;42.658;23.350;2024-01-06T03:11:14;119.60;;;110.93;;
2035;SDS011;23642;42.658;23.350;2024-01-06T03:13:49;113.83;;;105.07;;
2035;SDS011;23642;42.658;23.350;2024-01-06T03:16:22;115.60;;;107.57;;
2035;SDS011;23642;42.658;23.350;2024-01-06T03:19:06;112.60;;;105.10;;
2035;SDS011;23642;42.658;23.350;2024-01-06T03:21:51;111.57;;;103.97;;
2035;SDS011;23642;42.658;23.350;2024-01-06T03:27:07;116.13;;;108.13;;
2035;SDS011;23642;42.658;23.350;2024-01-06T03:29:35;114.10;;;106.50;;
2035;SDS011;23642;42.658;23.350;2024-01-06T03:32:07;113.90;;;105.20;;
2035;SDS011;23642;42.658;23.350;2024-01-06T03:34:42;111.07;;;103.50;;
2035;SDS011;23642;42.658;23.350;2024-01-06T03:37:13;115.00;;;107.00;;
2035;SDS011;23642;42.658;23.350;2024-01-06T03:39:55;115.70;;;107.67;;
2035;SDS011;23642;42.658;23.350;2024-01-06T03:42:24;112.80;;;104.70;;
2035;SDS011;23642;42.658;23.350;2024-01-06T03:45:01;113.27;;;105.43;;
2035;SDS011;23642;42.658;23.350;2024-01-06T03:47:31;111.30;;;103.80;;
2035;SDS011;23642;42.658;23.350;2024-01-06T03:49:58;114.20;;;105.83;;
2035;SDS011;23642;42.658;23.350;2024-01-06T03:52:26;112.83;;;104.90;;
2035;SDS011;23642;42.658;23.350;2024-01-06T03:55:01;111.90;;;104.07;;
2035;SDS011;23642;42.658;23.350;2024-01-06T03:57:30;110.87;;;103.73;;
2035;SDS011;23642;42.658;23.350;2024-01-06T03:59:57;113.70;;;105.43;;
2035;SDS011;23642;42.658;23.350;2024-01-06T04:02:35;112.60;;;104.60;;
2035;SDS011;23642;42.658;23.350;2024-01-06T04:05:17;111.43;;;104.03;;
2035;SDS011;23642;42.658;23.350;2024-01-06T04:07:51;111.57;;;103.47;;
2035;SDS011;23642;42.658;23.350;2024-01-06T04:10:30;112.10;;;104.80;;
2035;SDS011;23642;42.658;23.350;2024-01-06T04:13:11;111.97;;;104.77;;
2035;SDS011;23642;42.658;23.350;2024-01-06T04:15:50;113.40;;;106.13;;
2035;SDS011;23642;42.658;23.350;2024-01-06T04:18:18;113.00;;;105.57;;
2035;SDS011;23642;42.658;23.350;2024-01-06T04:20:49;112.97;;;105.60;;
2035;SDS011;23642;42.658;23.350;2024-01-06T04:23:21;111.50;;;104.23;;
2035;SDS011;23642;42.658;23.350;2024-01-06T04:25:51;111.37;;;104.17;;
2035;SDS011;23642;42.658;23.350;2024-01-06T04:28:18;113.50;;;106.07;;
2035;SDS011;23642;42.658;23.350;2024-01-06T04:30:48;113.47;;;105.83;;
2035;SDS011;23642;42.658;23.350;2024-01-06T04:33:17;114.37;;;106.57;;
2035;SDS011;23642;42.658;23.350;2024-01-06T04:35:47;113.90;;;105.87;;
2035;SDS011;23642;42.658;23.350;2024-01-06T04:38:15;115.37;;;106.97;;
2035;SDS011;23642;42.658;23.350;2024-01-06T04:40:54;114.47;;;106.80;;
2035;SDS011;23642;42.658;23.350;2024-01-06T04:43:33;117.43;;;108.47;;
2035;SDS011;23642;42.658;23.350;2024-01-06T04:46:01;117.57;;;109.47;;
2035;SDS011;23642;42.658;23.350;2024-01-06T04:48:30;117.93;;;109.90;;
2035;SDS011;23642;42.658;23.350;2024-01-06T04:51:02;116.67;;;108.20;;
2035;SDS011;23642;42.658;23.350;2024-01-06T04:53:41;115.80;;;107.90;;
2035;SDS011;23642;42.658;23.350;2024-01-06T04:56:20;115.67;;;106.97;;
2035;SDS011;23642;42.658;23.350;2024-01-06T04:58:49;113.57;;;105.50;;
2035;SDS011;23642;42.658;23.350;2024-01-06T05:01:26;116.30;;;107.43;;
2035;SDS011;23642;42.658;23.350;2024-01-06T05:03:55;112.17;;;104.73;;
2035;SDS011;23642;42.658;23.350;2024-01-06T05:06:38;116.30;;;108.00;;
2035;SDS011;23642;42.658;23.350;2024-01-06T05:09:05;112.57;;;104.77;;
2035;SDS011;23642;42.658;23.350;2024-01-06T05:12:02;115.27;;;107.57;;
2035;SDS011;23642;42.658;23.350;2024-01-06T05:14:34;116.30;;;108.40;;
2035;SDS011;23642;42.658;23.350;2024-01-06T05:17:04;114.23;;;106.47;;
2035;SDS011;23642;42.658;23.350;2024-01-06T05:19:47;115.20;;;107.60;;
2035;SDS011;23642;42.658;23.350;2024-01-06T05:22:15;114.40;;;106.67;;
2035;SDS011;23642;42.658;23.350;2024-01-06T05:24:43;116.47;;;107.97;;
2035;SDS011;23642;42.658;23.350;2024-01-06T05:27:13;116.10;;;107.80;;
2035;SDS011;23642;42.658;23.350;2024-01-06T05:29:42;115.20;;;107.30;;
2035;SDS011;23642;42.658;23.350;2024-01-06T05:32:23;112.97;;;105.50;;
2035;SDS011;23642;42.658;23.350;2024-01-06T05:34:52;115.50;;;107.90;;
2035;SDS011;23642;42.658;23.350;2024-01-06T05:37:31;114.83;;;107.00;;
2035;SDS011;23642;42.658;23.350;2024-01-06T05:40:03;112.60;;;105.40;;
2035;SDS011;23642;42.658;23.350;2024-01-06T05:42:46;112.63;;;105.00;;
2035;SDS011;23642;42.658;23.350;2024-01-06T05:45:18;114.17;;;106.30;;
2035;SDS011;23642;42.658;23.350;2024-01-06T05:47:47;111.23;;;103.80;;
2035;SDS011;23642;42.658;23.350;2024-01-06T05:50:18;110.27;;;102.83;;
2035;SDS011;23642;42.658;23.350;2024-01-06T05:52:52;113.23;;;105.83;;
2035;SDS011;23642;42.658;23.350;2024-01-06T05:55:20;112.50;;;104.90;;
2035;SDS011;23642;42.658;23.350;2024-01-06T05:57:59;115.77;;;107.77;;
2035;SDS011;23642;42.658;23.350;2024-01-06T06:00:39;117.77;;;109.57;;
2035;SDS011;23642;42.658;23.350;2024-01-06T06:03:06;117.80;;;109.53;;
2035;SDS011;23642;42.658;23.350;2024-01-06T06:05:39;118.23;;;110.03;;
2035;SDS011;23642;42.658;23.350;2024-01-06T06:08:10;119.47;;;110.87;;
2035;SDS011;23642;42.658;23.350;2024-01-06T06:10:59;116.07;;;108.27;;
2035;SDS011;23642;42.658;23.350;2024-01-06T06:13:37;116.93;;;108.70;;
2035;SDS011;23642;42.658;23.350;2024-01-06T06:16:21;119.60;;;111.10;;
2035;SDS011;23642;42.658;23.350;2024-01-06T06:18:48;119.33;;;110.40;;
2035;SDS011;23642;42.658;23.350;2024-01-06T06:21:17;115.83;;;107.87;;
2035;SDS011;23642;42.658;23.350;2024-01-06T06:23:45;119.00;;;110.50;;
2035;SDS011;23642;42.658;23.350;2024-01-06T06:26:19;118.33;;;109.93;;
2035;SDS011;23642;42.658;23.350;2024-01-06T06:28:51;118.70;;;110.70;;
2035;SDS011;23642;42.658;23.350;2024-01-06T06:31:18;115.57;;;107.80;;
2035;SDS011;23642;42.658;23.350;2024-01-06T06:33:47;115.47;;;107.77;;
2035;SDS011;23642;42.658;23.350;2024-01-06T06:36:15;118.97;;;109.53;;
2035;SDS011;23642;42.658;23.350;2024-01-06T06:38:44;120.10;;;111.50;;
2035;SDS011;23642;42.658;23.350;2024-01-06T06:41:16;122.93;;;113.97;;
2035;SDS011;23642;42.658;23.350;2024-01-06T06:43:46;118.07;;;109.70;;
2035;SDS011;23642;42.658;23.350;2024-01-06T06:46:33;121.87;;;112.77;;
2035;SDS011;23642;42.658;23.350;2024-01-06T06:49:01;120.30;;;112.10;;
2035;SDS011;23642;42.658;23.350;2024-01-06T06:51:32;119.67;;;111.37;;
2035;SDS011;23642;42.658;23.350;2024-01-06T06:54:03;117.97;;;109.97;;
2035;SDS011;23642;42.658;23.350;2024-01-06T06:56:49;120.13;;;111.90;;
2035;SDS011;23642;42.658;23.350;2024-01-06T06:59:17;118.37;;;109.93;;
2035;SDS011;23642;42.658;23.350;2024-01-06T07:01:48;123.30;;;114.57;;
2035;SDS011;23642;42.658;23.350;2024-01-06T07:04:18;121.93;;;113.07;;
2035;SDS011;23642;42.658;23.350;2024-01-06T07:06:49;124.87;;;115.00;;
2035;SDS011;23642;42.658;23.350;2024-01-06T07:09:17;121.63;;;113.03;;
2035;SDS011;23642;42.658;23.350;2024-01-06T07:11:45;125.47;;;115.47;;
2035;SDS011;23642;42.658;23.350;2024-01-06T07:14:14;122.67;;;113.80;;
2035;SDS011;23642;42.658;23.350;2024-01-06T07:16:54;122.07;;;113.63;;
2035;SDS011;23642;42.658;23.350;2024-01-06T07:19:23;129.67;;;119.87;;
2035;SDS011;23642;42.658;23.350;2024-01-06T07:21:51;123.90;;;114.53;;
2035;SDS011;23642;42.658;23.350;2024-01-06T07:24:31;121.23;;;112.40;;
2035;SDS011;23642;42.658;23.350;2024-01-06T07:27:16;121.87;;;113.20;;
2035;SDS011;23642;42.658;23.350;2024-01-06T07:29:45;122.50;;;113.87;;
2035;SDS011;23642;42.658;23.350;2024-01-06T07:32:18;124.37;;;115.33;;
2035;SDS011;23642;42.658;23.350;2024-01-06T07:34:53;125.70;;;116.70;;
2035;SDS011;23642;42.658;23.350;2024-01-06T07:37:27;124.93;;;115.93;;
2035;SDS011;23642;42.658;23.350;2024-01-06T07:39:56;121.60;;;113.30;;
2035;SDS011;23642;42.658;23.350;2024-01-06T07:42:27;121.30;;;112.47;;
2035;SDS011;23642;42.658;23.350;2024-01-06T07:44:59;123.97;;;115.33;;
2035;SDS011;23642;42.658;23.350;2024-01-06T07:47:30;123.57;;;115.07;;
2035;SDS011;23642;42.658;23.350;2024-01-06T07:49:58;123.03;;;114.53;;
2035;SDS011;23642;42.658;23.350;2024-01-06T07:52:27;123.73;;;115.13;;
2035;SDS011;23642;42.658;23.350;2024-01-06T07:54:55;126.63;;;116.73;;
2035;SDS011;23642;42.658;23.350;2024-01-06T07:57:22;128.03;;;117.93;;
2035;SDS011;23642;42.658;23.350;2024-01-06T07:59:52;124.17;;;115.10;;
2035;SDS011;23642;42.658;23.350;2024-01-06T08:02:20;127.60;;;118.53;;
2035;SDS011;23642;42.658;23.350;2024-01-06T08:04:54;126.20;;;117.40;;
2035;SDS011;23642;42.658;23.350;2024-01-06T08:07:35;131.83;;;121.17;;
2035;SDS011;23642;42.658;23.350;2024-01-06T08:10:03;128.53;;;118.60;;
2035;SDS011;23642;42.658;23.350;2024-01-06T08:12:34;128.43;;;118.87;;
2035;SDS011;23642;42.658;23.350;2024-01-06T08:15:07;134.03;;;122.90;;
2035;SDS011;23642;42.658;23.350;2024-01-06T08:17:40;126.70;;;117.47;;
2035;SDS011;23642;42.658;23.350;2024-01-06T08:20:24;126.73;;;117.93;;
2035;SDS011;23642;42.658;23.350;2024-01-06T08:22:50;127.27;;;117.70;;
2035;SDS011;23642;42.658;23.350;2024-01-06T08:25:19;125.47;;;116.57;;
2035;SDS011;23642;42.658;23.350;2024-01-06T08:27:54;127.77;;;118.53;;
2035;SDS011;23642;42.658;23.350;2024-01-06T08:30:24;124.57;;;114.77;;
2035;SDS011;23642;42.658;23.350;2024-01-06T08:32:57;127.93;;;118.50;;
2035;SDS011;23642;42.658;23.350;2024-01-06T08:35:29;124.93;;;115.60;;
2035;SDS011;23642;42.658;23.350;2024-01-06T08:37:57;128.40;;;118.80;;
2035;SDS011;23642;42.658;23.350;2024-01-06T08:40:26;129.00;;;119.40;;
2035;SDS011;23642;42.658;23.350;2024-01-06T08:42:56;130.07;;;120.03;;
2035;SDS011;23642;42.658;23.350;2024-01-06T08:45:36;131.57;;;121.47;;
2035;SDS011;23642;42.658;23.350;2024-01-06T08:48:07;126.30;;;117.60;;
2035;SDS011;23642;42.658;23.350;2024-01-06T08:50:40;127.87;;;118.77;;
2035;SDS011;23642;42.658;23.350;2024-01-06T08:53:17;127.77;;;118.30;;
2035;SDS011;23642;42.658;23.350;2024-01-06T08:55:45;130.33;;;120.83;;
2035;SDS011;23642;42.658;23.350;2024-01-06T08:58:14;129.83;;;120.23;;
2035;SDS011;23642;42.658;23.350;2024-01-06T09:00:43;128.57;;;119.37;;
2035;SDS011;23642;42.658;23.350;2024-01-06T09:03:11;130.47;;;120.70;;
2035;SDS011;23642;42.658;23.350;2024-01-06T09:05:43;132.97;;;123.17;;
2035;SDS011;23642;42.658;23.350;2024-01-06T09:08:12;134.07;;;124.07;;
2035;SDS011;23642;42.658;23.350;2024-01-06T09:10:44;132.70;;;122.73;;
2035;SDS011;23642;42.658;23.350;2024-01-06T09:13:19;133.87;;;124.30;;
2035;SDS011;23642;42.658;23.350;2024-01-06T09:15:57;141.27;;;129.40;;
2035;SDS011;23642;42.658;23.350;2024-01-06T09:18:27;138.03;;;126.90;;
2035;SDS011;23642;42.658;23.350;2024-01-06T09:20:58;133.07;;;123.37;;
2035;SDS011;23642;42.658;23.350;2024-01-06T09:23:26;135.37;;;125.80;;
2035;SDS011;23642;42.658;23.350;2024-01-06T09:26:05;137.60;;;127.40;;
2035;SDS011;23642;42.658;23.350;2024-01-06T09:28:43;138.90;;;128.70;;
2035;SDS011;23642;42.658;23.350;2024-01-06T09:31:14;144.63;;;133.47;;
2035;SDS011;23642;42.658;23.350;2024-01-06T09:33:53;138.67;;;128.50;;
2035;SDS011;23642;42.658;23.350;2024-01-06T09:36:27;141.53;;;131.10;;
2035;SDS011;23642;42.658;23.350;2024-01-06T09:39:01;138.73;;;128.47;;
2035;SDS011;23642;42.658;23.350;2024-01-06T09:41:30;140.20;;;129.63;;
2035;SDS011;23642;42.658;23.350;2024-01-06T09:44:03;140.37;;;129.97;;
2035;SDS011;23642;42.658;23.350;2024-01-06T09:46:32;141.07;;;128.20;;
2035;SDS011;23642;42.658;23.350;2024-01-06T09:49:03;142.73;;;130.87;;
2035;SDS011;23642;42.658;23.350;2024-01-06T09:51:34;142.20;;;131.20;;
2035;SDS011;23642;42.658;23.350;2024-01-06T09:54:04;142.83;;;131.63;;
2035;SDS011;23642;42.658;23.350;2024-01-06T09:56:36;140.50;;;130.27;;
2035;SDS011;23642;42.658;23.350;2024-01-06T09:59:10;142.67;;;131.77;;
2035;SDS011;23642;42.658;23.350;2024-01-06T10:01:50;145.97;;;134.80;;
2035;SDS011;23642;42.658;23.350;2024-01-06T10:04:20;151.10;;;139.63;;
2035;SDS011;23642;42.658;23.350;2024-01-06T10:06:50;152.90;;;140.93;;
2035;SDS011;23642;42.658;23.350;2024-01-06T10:09:25;151.60;;;140.40;;
2035;SDS011;23642;42.658;23.350;2024-01-06T10:11:59;155.30;;;142.63;;
2035;SDS011;23642;42.658;23.350;2024-01-06T10:14:28;156.83;;;141.93;;
2035;SDS011;23642;42.658;23.350;2024-01-06T10:16:59;150.90;;;138.87;;
2035;SDS011;23642;42.658;23.350;2024-01-06T10:19:26;151.33;;;139.90;;
2035;SDS011;23642;42.658;23.350;2024-01-06T10:22:01;148.20;;;136.30;;
2035;SDS011;23642;42.658;23.350;2024-01-06T10:24:38;146.23;;;134.93;;
2035;SDS011;23642;42.658;23.350;2024-01-06T10:27:07;142.43;;;131.80;;
2035;SDS011;23642;42.658;23.350;2024-01-06T10:29:36;145.37;;;134.47;;
2035;SDS011;23642;42.658;23.350;2024-01-06T10:32:10;140.43;;;129.83;;
2035;SDS011;23642;42.658;23.350;2024-01-06T10:34:45;142.37;;;131.50;;
2035;SDS011;23642;42.658;23.350;2024-01-06T10:37:30;142.80;;;131.70;;
2035;SDS011;23642;42.658;23.350;2024-01-06T10:40:14;142.23;;;130.17;;
2035;SDS011;23642;42.658;23.350;2024-01-06T10:42:45;139.23;;;129.00;;
2035;SDS011;23642;42.658;23.350;2024-01-06T10:45:17;143.33;;;132.47;;
2035;SDS011;23642;42.658;23.350;2024-01-06T10:47:46;139.53;;;129.53;;
2035;SDS011;23642;42.658;23.350;2024-01-06T10:50:24;140.47;;;129.57;;
2035;SDS011;23642;42.658;23.350;2024-01-06T10:52:58;140.00;;;129.80;;
2035;SDS011;23642;42.658;23.350;2024-01-06T10:55:29;138.97;;;128.60;;
2035;SDS011;23642;42.658;23.350;2024-01-06T10:58:00;139.43;;;129.07;;
2035;SDS011;23642;42.658;23.350;2024-01-06T11:00:32;139.93;;;129.40;;
2035;SDS011;23642;42.658;23.350;2024-01-06T11:02:59;141.00;;;130.63;;
2035;SDS011;23642;42.658;23.350;2024-01-06T11:05:31;144.07;;;132.87;;
2035;SDS011;23642;42.658;23.350;2024-01-06T11:08:04;145.20;;;134.00;;
2035;SDS011;23642;42.658;23.350;2024-01-06T11:10:41;146.77;;;135.13;;
2035;SDS011;23642;42.658;23.350;2024-01-06T11:13:27;147.03;;;135.70;;
2035;SDS011;23642;42.658;23.350;2024-01-06T11:16:04;147.20;;;135.60;;
2035;SDS011;23642;42.658;23.350;2024-01-06T11:18:57;140.83;;;130.70;;
2035;SDS011;23642;42.658;23.350;2024-01-06T11:21:42;137.93;;;127.90;;
2035;SDS011;23642;42.658;23.350;2024-01-06T11:24:20;136.70;;;127.10;;
2035;SDS011;23642;42.658;23.350;2024-01-06T11:26:50;137.77;;;127.87;;
2035;SDS011;23642;42.658;23.350;2024-01-06T11:29:38;134.97;;;125.07;;
2035;SDS011;23642;42.658;23.350;2024-01-06T11:32:39;133.57;;;124.17;;
2035;SDS011;23642;42.658;23.350;2024-01-06T11:35:31;133.83;;;124.40;;
2035;SDS011;23642;42.658;23.350;2024-01-06T11:38:16;131.10;;;121.27;;
2035;SDS011;23642;42.658;23.350;2024-01-06T11:40:56;132.43;;;123.13;;
2035;SDS011;23642;42.658;23.350;2024-01-06T11:43:39;132.20;;;122.03;;
2035;SDS011;23642;42.658;23.350;2024-01-06T11:46:12;130.77;;;121.87;;
2035;SDS011;23642;42.658;23.350;2024-01-06T11:48:49;130.60;;;121.60;;
2035;SDS011;23642;42.658;23.350;2024-01-06T11:51:18;132.47;;;122.83;;
2035;SDS011;23642;42.658;23.350;2024-01-06T11:53:53;134.87;;;125.00;;
2035;SDS011;23642;42.658;23.350;2024-01-06T11:56:28;133.50;;;124.57;;
2035;SDS011;23642;42.658;23.350;2024-01-06T11:59:00;135.90;;;126.27;;
2035;SDS011;23642;42.658;23.350;2024-01-06T12:01:36;133.00;;;123.60;;
2035;SDS011;23642;42.658;23.350;2024-01-06T12:04:08;134.33;;;124.23;;
2035;SDS011;23642;42.658;23.350;2024-01-06T12:06:40;134.60;;;124.80;;
2035;SDS011;23642;42.658;23.350;2024-01-06T12:09:18;132.90;;;123.40;;
2035;SDS011;23642;42.658;23.350;2024-01-06T12:11:57;131.87;;;122.67;;
2035;SDS011;23642;42.658;23.350;2024-01-06T12:14:44;131.23;;;122.10;;
2035;SDS011;23642;42.658;23.350;2024-01-06T12:17:23;129.77;;;120.87;;
2035;SDS011;23642;42.658;23.350;2024-01-06T12:20:09;134.53;;;124.90;;
2035;SDS011;23642;42.658;23.350;2024-01-06T12:22:37;129.47;;;120.23;;
2035;SDS011;23642;42.658;23.350;2024-01-06T12:25:10;130.40;;;121.50;;
2035;SDS011;23642;42.658;23.350;2024-01-06T12:28:07;132.37;;;123.43;;
2035;SDS011;23642;42.658;23.350;2024-01-06T12:30:36;136.23;;;125.60;;
2035;SDS011;23642;42.658;23.350;2024-01-06T12:33:07;132.97;;;122.73;;
2035;SDS011;23642;42.658;23.350;2024-01-06T12:35:40;130.57;;;121.07;;
2035;SDS011;23642;42.658;23.350;2024-01-06T12:38:08;128.60;;;119.97;;
2035;SDS011;23642;42.658;23.350;2024-01-06T12:40:36;130.90;;;122.10;;
2035;SDS011;23642;42.658;23.350;2024-01-06T12:43:09;134.17;;;124.30;;
2035;SDS011;23642;42.658;23.350;2024-01-06T12:45:40;133.03;;;123.13;;
2035;SDS011;23642;42.658;23.350;2024-01-06T12:48:13;134.53;;;124.97;;
2035;SDS011;23642;42.658;23.350;2024-01-06T12:50:43;135.70;;;125.60;;
2035;SDS011;23642;42.658;23.350;2024-01-06T12:53:12;132.87;;;122.77;;
2035;SDS011;23642;42.658;23.350;2024-01-06T12:55:42;133.93;;;124.93;;
2035;SDS011;23642;42.658;23.350;2024-01-06T12:58:12;134.10;;;124.00;;
2035;SDS011;23642;42.658;23.350;2024-01-06T13:00:42;133.27;;;124.23;;
2035;SDS011;23642;42.658;23.350;2024-01-06T13:03:34;134.10;;;124.70;;
2035;SDS011;23642;42.658;23.350;2024-01-06T13:06:02;134.23;;;124.83;;
2035;SDS011;23642;42.658;23.350;2024-01-06T13:08:35;133.30;;;123.40;;
2035;SDS011;23642;42.658;23.350;2024-01-06T13:11:31;129.77;;;121.23;;
2035;SDS011;23642;42.658;23.350;2024-01-06T13:14:07;135.60;;;126.00;;
2035;SDS011;23642;42.658;23.350;2024-01-06T13:16:41;131.33;;;122.60;;
2035;SDS011;23642;42.658;23.350;2024-01-06T13:19:08;131.40;;;122.30;;
2035;SDS011;23642;42.658;23.350;2024-01-06T13:21:36;132.47;;;122.90;;
2035;SDS011;23642;42.658;23.350;2024-01-06T13:24:09;133.93;;;123.90;;
2035;SDS011;23642;42.658;23.350;2024-01-06T13:26:39;130.03;;;121.63;;
2035;SDS011;23642;42.658;23.350;2024-01-06T13:29:10;130.10;;;121.20;;
2035;SDS011;23642;42.658;23.350;2024-01-06T13:31:38;129.07;;;119.97;;
2035;SDS011;23642;42.658;23.350;2024-01-06T13:34:06;129.03;;;119.73;;
2035;SDS011;23642;42.658;23.350;2024-01-06T13:36:33;132.07;;;123.30;;
2035;SDS011;23642;42.658;23.350;2024-01-06T13:39:01;128.93;;;119.77;;
2035;SDS011;23642;42.658;23.350;2024-01-06T13:41:29;133.57;;;122.83;;
2035;SDS011;23642;42.658;23.350;2024-01-06T13:43:56;126.77;;;118.57;;
2035;SDS011;23642;42.658;23.350;2024-01-06T13:46:28;126.20;;;117.83;;
2035;SDS011;23642;42.658;23.350;2024-01-06T13:48:57;133.33;;;123.23;;
2035;SDS011;23642;42.658;23.350;2024-01-06T13:51:28;126.93;;;118.50;;
2035;SDS011;23642;42.658;23.350;2024-01-06T13:53:55;125.37;;;116.97;;
2035;SDS011;23642;42.658;23.350;2024-01-06T13:56:22;126.47;;;117.77;;
2035;SDS011;23642;42.658;23.350;2024-01-06T13:58:50;125.30;;;116.77;;
2035;SDS011;23642;42.658;23.350;2024-01-06T14:01:22;124.80;;;116.60;;
2035;SDS011;23642;42.658;23.350;2024-01-06T14:03:51;128.53;;;119.10;;
2035;SDS011;23642;42.658;23.350;2024-01-06T14:06:23;125.43;;;117.10;;
2035;SDS011;23642;42.658;23.350;2024-01-06T14:09:01;127.57;;;118.67;;
2035;SDS011;23642;42.658;23.350;2024-01-06T14:11:35;127.27;;;118.53;;
2035;SDS011;23642;42.658;23.350;2024-01-06T14:14:04;127.90;;;118.50;;
2035;SDS011;23642;42.658;23.350;2024-01-06T14:16:36;126.20;;;117.57;;
2035;SDS011;23642;42.658;23.350;2024-01-06T14:19:13;127.13;;;118.73;;
2035;SDS011;23642;42.658;23.350;2024-01-06T14:21:44;128.93;;;120.03;;
2035;SDS011;23642;42.658;23.350;2024-01-06T14:24:15;127.43;;;117.87;;
2035;SDS011;23642;42.658;23.350;2024-01-06T14:26:51;129.03;;;120.40;;
2035;SDS011;23642;42.658;23.350;2024-01-06T14:29:20;127.83;;;119.07;;
2035;SDS011;23642;42.658;23.350;2024-01-06T14:31:49;127.47;;;118.17;;
2035;SDS011;23642;42.658;23.350;2024-01-06T14:34:35;129.83;;;119.47;;